Time;durP1;ratioP1;P1;durP2;ratioP2;P2;SDS_P1;SDS_P2;PMS_P1;PMS_P2;Temp;Humidity;BMP_temperature;BMP_pressure;BME280_temperature;BME280_humidity;BME280_pressure;Samples;Min_cycle;Max_cycle;Signal;HPM_P1;HPM_P2
2021/07/13 00:01:23;;;;;;;12.57;11.38;;;;;;;;;;5093585;28;20220;-63
2021/07/13 00:03:53;;;;;;;13.27;12.02;;;;;;;;;;5093029;28;20204;-63
2021/07/13 00:06:24;;;;;;;13.25;11.95;;;;;;;;;;5093324;28;20192;-64
2021/07/13 00:08:53;;;;;;;12.95;11.75;;;;;;;;;;5093339;28;20214;-65
2021/07/13 00:11:22;;;;;;;12.73;11.43;;;;;;;;;;5092932;28;20196;-64
2021/07/13 00:13:50;;;;;;;12.50;11.30;;;;;;;;;;5092973;28;20207;-64
2021/07/13 00:16:18;;;;;;;12.43;11.32;;;;;;;;;;5093154;28;20211;-63
2021/07/13 00:18:47;;;;;;;12.55;11.20;;;;;;;;;;5093168;28;20207;-64
2021/07/13 00:21:15;;;;;;;12.48;11.27;;;;;;;;;;5092802;28;20675;-64
2021/07/13 00:23:43;;;;;;;11.95;10.85;;;;;;;;;;5092999;28;20543;-65
2021/07/13 00:26:15;;;;;;;12.65;11.20;;;;;;;;;;5092945;28;20623;-65
2021/07/13 00:28:44;;;;;;;12.90;11.70;;;;;;;;;;5093070;28;20265;-63
2021/07/13 00:31:12;;;;;;;12.20;11.10;;;;;;;;;;5092920;28;20196;-64
2021/07/13 00:33:40;;;;;;;12.90;11.55;;;;;;;;;;5092869;28;20203;-63
2021/07/13 00:36:08;;;;;;;12.55;11.35;;;;;;;;;;5092597;28;20672;-64
2021/07/13 00:38:36;;;;;;;13.07;11.75;;;;;;;;;;5092660;28;20315;-64
2021/07/13 00:41:05;;;;;;;11.75;10.55;;;;;;;;;;5092652;28;20326;-64
2021/07/13 00:43:34;;;;;;;12.73;11.48;;;;;;;;;;5092248;28;20328;-65
2021/07/13 00:46:04;;;;;;;12.45;11.35;;;;;;;;;;5092686;28;20291;-64
2021/07/13 00:48:32;;;;;;;12.45;11.18;;;;;;;;;;5092393;28;20249;-64
2021/07/13 00:51:03;;;;;;;12.52;11.23;;;;;;;;;;5092065;28;20250;-63
2021/07/13 00:53:31;;;;;;;11.90;10.77;;;;;;;;;;5092290;28;20701;-64
2021/07/13 00:56:00;;;;;;;12.93;11.73;;;;;;;;;;5092484;28;20200;-65
2021/07/13 00:58:28;;;;;;;13.57;11.30;;;;;;;;;;5092479;28;20270;-64
2021/07/13 01:00:58;;;;;;;12.00;10.93;;;;;;;;;;5092521;28;20196;-64
2021/07/13 01:03:26;;;;;;;12.77;11.48;;;;;;;;;;5092279;28;20257;-64
2021/07/13 01:05:55;;;;;;;12.82;11.57;;;;;;;;;;5092272;28;20294;-64
2021/07/13 01:08:36;;;;;;;13.02;11.85;;;;;;;;;;5091951;28;20732;-63
2021/07/13 01:11:10;;;;;;;12.20;11.10;;;;;;;;;;5092157;28;20279;-64
2021/07/13 01:13:42;;;;;;;12.30;11.18;;;;;;;;;;5092077;28;20682;-64
2021/07/13 01:16:14;;;;;;;12.25;11.05;;;;;;;;;;5092162;28;20616;-63
2021/07/13 01:18:46;;;;;;;12.95;11.65;;;;;;;;;;5092257;28;20204;-64
2021/07/13 01:21:22;;;;;;;13.35;11.98;;;;;;;;;;5092254;28;20259;-64
2021/07/13 01:23:56;;;;;;;12.80;11.60;;;;;;;;;;5092236;28;20327;-64
2021/07/13 01:26:32;;;;;;;12.13;11.02;;;;;;;;;;5091878;28;20734;-63
2021/07/13 01:29:03;;;;;;;13.70;11.50;;;;;;;;;;5092283;28;20175;-65
2021/07/13 01:31:32;;;;;;;12.70;11.40;;;;;;;;;;5092412;28;20188;-63
2021/07/13 01:34:02;;;;;;;11.85;10.75;;;;;;;;;;5092218;28;20196;-64
2021/07/13 01:36:32;;;;;;;12.70;11.48;;;;;;;;;;5092016;28;20200;-65
2021/07/13 01:39:01;;;;;;;11.82;10.18;;;;;;;;;;5091735;28;20240;-64
2021/07/13 01:41:31;;;;;;;12.25;11.05;;;;;;;;;;5091705;28;20642;-64
2021/07/13 01:43:59;;;;;;;12.15;10.95;;;;;;;;;;5092070;28;20188;-64
2021/07/13 01:46:29;;;;;;;12.18;11.07;;;;;;;;;;5091892;28;20756;-64
2021/07/13 01:48:59;;;;;;;11.52;10.32;;;;;;;;;;5092119;28;20287;-64
2021/07/13 01:51:28;;;;;;;11.80;10.70;;;;;;;;;;5091480;28;20792;-63
2021/07/13 01:53:58;;;;;;;11.60;10.50;;;;;;;;;;5091900;28;20199;-63
2021/07/13 01:56:26;;;;;;;11.52;10.43;;;;;;;;;;5091799;28;20207;-64
2021/07/13 01:58:54;;;;;;;11.13;10.13;;;;;;;;;;5091499;28;20675;-64
2021/07/13 02:01:24;;;;;;;11.73;10.35;;;;;;;;;;5091986;28;20207;-64
2021/07/13 02:03:55;;;;;;;10.90;9.80;;;;;;;;;;5095572;28;20307;-64
2021/07/13 02:06:25;;;;;;;10.45;9.30;;;;;;;;;;5101559;28;20271;-65
2021/07/13 02:08:55;;;;;;;10.80;9.60;;;;;;;;;;5100756;28;20260;-64
2021/07/13 02:11:23;;;;;;;11.18;9.18;;;;;;;;;;5092203;28;20236;-64
2021/07/13 02:13:52;;;;;;;10.65;9.63;;;;;;;;;;5091472;28;20291;-64
2021/07/13 02:16:20;;;;;;;10.77;9.68;;;;;;;;;;5091739;28;20200;-64
2021/07/13 02:18:49;;;;;;;10.80;9.73;;;;;;;;;;5091432;28;20220;-63
2021/07/13 02:21:18;;;;;;;10.00;9.00;;;;;;;;;;5093914;28;20196;-64
2021/07/13 02:23:47;;;;;;;9.98;9.07;;;;;;;;;;5095512;28;20196;-63
2021/07/13 02:26:19;;;;;;;10.20;9.27;;;;;;;;;;5095307;28;20200;-63
2021/07/13 02:28:49;;;;;;;10.32;9.32;;;;;;;;;;5095087;28;20187;-64
2021/07/13 02:31:20;;;;;;;10.10;9.20;;;;;;;;;;5095545;28;20206;-63
2021/07/13 02:33:49;;;;;;;9.98;9.02;;;;;;;;;;5095280;28;20184;-64
2021/07/13 02:36:20;;;;;;;9.95;9.07;;;;;;;;;;5094855;28;20208;-63
2021/07/13 02:38:48;;;;;;;9.68;8.68;;;;;;;;;;5094884;28;20200;-64
2021/07/13 02:41:17;;;;;;;9.40;8.60;;;;;;;;;;5095023;28;20203;-63
2021/07/13 02:43:45;;;;;;;10.23;9.25;;;;;;;;;;5094670;28;20640;-63
2021/07/13 02:46:14;;;;;;;11.05;9.98;;;;;;;;;;5094714;28;20204;-63
2021/07/13 02:48:43;;;;;;;10.63;9.60;;;;;;;;;;5094799;28;20207;-64
2021/07/13 02:51:12;;;;;;;9.38;8.50;;;;;;;;;;5091316;28;20239;-64
2021/07/13 02:53:42;;;;;;;10.07;8.95;;;;;;;;;;5074625;28;20300;-64
2021/07/13 02:56:11;;;;;;;9.80;8.90;;;;;;;;;;5074236;28;20207;-64
2021/07/13 02:58:41;;;;;;;9.55;8.55;;;;;;;;;;5074242;28;20706;-64
2021/07/13 03:01:09;;;;;;;9.25;8.30;;;;;;;;;;5074557;28;20200;-64
2021/07/13 03:03:39;;;;;;;10.65;8.93;;;;;;;;;;5074443;28;20223;-64
2021/07/13 03:06:08;;;;;;;9.52;8.63;;;;;;;;;;5074219;28;20581;-64
2021/07/13 03:08:36;;;;;;;9.90;9.07;;;;;;;;;;5074231;28;20288;-64
2021/07/13 03:11:07;;;;;;;10.35;9.00;;;;;;;;;;5074074;28;20203;-65
2021/07/13 03:13:35;;;;;;;10.32;9.32;;;;;;;;;;5074296;28;20220;-63
2021/07/13 03:16:04;;;;;;;9.77;8.88;;;;;;;;;;5074346;28;20258;-64
2021/07/13 03:18:32;;;;;;;10.70;9.55;;;;;;;;;;5074008;28;20419;-64
2021/07/13 03:21:02;;;;;;;10.05;9.02;;;;;;;;;;5073593;28;20549;-63
2021/07/13 03:23:31;;;;;;;10.30;9.30;;;;;;;;;;5074041;28;20181;-63
2021/07/13 03:26:00;;;;;;;9.80;9.00;;;;;;;;;;5073831;28;20196;-66
2021/07/13 03:28:31;;;;;;;11.70;9.20;;;;;;;;;;5073836;28;20780;-63
2021/07/13 03:30:59;;;;;;;9.77;8.98;;;;;;;;;;5073620;28;20189;-64
2021/07/13 03:33:28;;;;;;;9.40;8.60;;;;;;;;;;5073051;28;20201;-64
2021/07/13 03:35:56;;;;;;;10.80;9.15;;;;;;;;;;5073369;28;20201;-64
2021/07/13 03:38:25;;;;;;;8.35;7.65;;;;;;;;;;5073321;28;20224;-64
2021/07/13 03:40:53;;;;;;;8.93;8.02;;;;;;;;;;5073564;28;20203;-64
2021/07/13 03:43:22;;;;;;;8.82;8.02;;;;;;;;;;5073651;28;20312;-65
2021/07/13 03:45:51;;;;;;;9.32;8.52;;;;;;;;;;5073850;28;20316;-63
2021/07/13 03:48:21;;;;;;;8.32;7.53;;;;;;;;;;5074493;28;20223;-63
2021/07/13 03:50:50;;;;;;;9.07;8.15;;;;;;;;;;5082696;28;20234;-63
2021/07/13 03:53:18;;;;;;;8.60;7.90;;;;;;;;;;5094090;28;20598;-64
2021/07/13 03:55:46;;;;;;;8.55;7.75;;;;;;;;;;5093889;28;20671;-63
2021/07/13 03:58:14;;;;;;;9.38;8.00;;;;;;;;;;5094116;28;20204;-64
2021/07/13 04:00:42;;;;;;;8.23;7.43;;;;;;;;;;5093841;28;20858;-63
2021/07/13 04:03:12;;;;;;;8.13;7.32;;;;;;;;;;5094165;28;20206;-63
2021/07/13 04:05:40;;;;;;;9.15;7.20;;;;;;;;;;5093888;28;20208;-63
2021/07/13 04:08:09;;;;;;;7.50;6.60;;;;;;;;;;5093608;28;20778;-64
2021/07/13 04:10:37;;;;;;;7.88;6.90;;;;;;;;;;5093824;28;20218;-63
2021/07/13 04:13:05;;;;;;;7.65;6.95;;;;;;;;;;5093922;28;20196;-64
2021/07/13 04:15:34;;;;;;;7.25;6.13;;;;;;;;;;5093828;28;20220;-65
2021/07/13 04:18:02;;;;;;;7.55;6.75;;;;;;;;;;5089185;28;20276;-64
2021/07/13 04:20:31;;;;;;;7.88;6.50;;;;;;;;;;5073512;28;20216;-64
2021/07/13 04:23:00;;;;;;;7.55;6.68;;;;;;;;;;5073562;28;20203;-64
2021/07/13 04:25:28;;;;;;;8.10;7.40;;;;;;;;;;5073529;28;20203;-65
2021/07/13 04:27:56;;;;;;;7.82;7.13;;;;;;;;;;5073000;28;20211;-65
2021/07/13 04:30:24;;;;;;;7.07;6.47;;;;;;;;;;5073201;28;20208;-65
2021/07/13 04:32:52;;;;;;;7.38;6.55;;;;;;;;;;5073362;28;20235;-65
2021/07/13 04:35:21;;;;;;;6.90;6.30;;;;;;;;;;5073371;28;20208;-64
2021/07/13 04:37:50;;;;;;;11.32;7.10;;;;;;;;;;5072768;28;20292;-64
2021/07/13 04:40:18;;;;;;;6.68;6.13;;;;;;;;;;5073209;28;20256;-65
2021/07/13 04:42:47;;;;;;;7.28;6.07;;;;;;;;;;5073077;28;20649;-65
2021/07/13 04:45:15;;;;;;;6.50;5.90;;;;;;;;;;5072405;28;20287;-64
2021/07/13 04:47:43;;;;;;;6.90;6.28;;;;;;;;;;5073071;28;20751;-65
2021/07/13 04:50:12;;;;;;;7.82;6.90;;;;;;;;;;5073223;28;20259;-64
2021/07/13 04:52:40;;;;;;;7.15;6.55;;;;;;;;;;5088923;28;20192;-64
2021/07/13 04:55:12;;;;;;;8.50;7.60;;;;;;;;;;5093495;28;20204;-64
2021/07/13 04:57:40;;;;;;;6.63;6.03;;;;;;;;;;5093366;28;20185;-65
2021/07/13 05:00:09;;;;;;;7.03;6.43;;;;;;;;;;5093109;28;20625;-64
2021/07/13 05:02:38;;;;;;;8.10;6.75;;;;;;;;;;5093271;28;20210;-64
2021/07/13 05:05:08;;;;;;;7.40;6.70;;;;;;;;;;5093087;28;20200;-66
2021/07/13 05:07:39;;;;;;;8.32;7.55;;;;;;;;;;5093107;28;20181;-65
2021/07/13 05:10:08;;;;;;;6.97;6.38;;;;;;;;;;5092980;28;20204;-63
2021/07/13 05:12:38;;;;;;;7.80;6.97;;;;;;;;;;5092112;28;20675;-65
2021/07/13 05:15:06;;;;;;;7.32;6.22;;;;;;;;;;5092010;28;20208;-64
2021/07/13 05:17:35;;;;;;;9.23;6.10;;;;;;;;;;5092006;28;20203;-63
2021/07/13 05:20:04;;;;;;;6.80;6.10;;;;;;;;;;5092246;28;20216;-64
2021/07/13 05:22:33;;;;;;;6.53;5.85;;;;;;;;;;5091994;28;20287;-64
2021/07/13 05:25:01;;;;;;;6.45;5.88;;;;;;;;;;5092167;28;20303;-64
2021/07/13 05:27:31;;;;;;;7.32;6.25;;;;;;;;;;5091904;28;20196;-65
2021/07/13 05:30:01;;;;;;;6.75;5.82;;;;;;;;;;5091862;28;20206;-64
2021/07/13 05:32:29;;;;;;;6.18;5.43;;;;;;;;;;5092219;28;20249;-65
2021/07/13 05:34:57;;;;;;;9.65;6.22;;;;;;;;;;5092077;28;20200;-64
2021/07/13 05:37:26;;;;;;;6.85;5.38;;;;;;;;;;5091879;28;20218;-63
2021/07/13 05:39:55;;;;;;;7.68;6.18;;;;;;;;;;5091975;28;20218;-64
2021/07/13 05:42:23;;;;;;;7.60;5.53;;;;;;;;;;5091828;28;20192;-64
2021/07/13 05:44:51;;;;;;;5.55;5.15;;;;;;;;;;5092055;28;20554;-64
2021/07/13 05:47:21;;;;;;;6.25;5.70;;;;;;;;;;5092009;28;20573;-64
2021/07/13 05:49:49;;;;;;;5.78;5.15;;;;;;;;;;5091471;28;20287;-64
2021/07/13 05:52:17;;;;;;;6.05;5.45;;;;;;;;;;5091382;28;20188;-65
2021/07/13 05:54:46;;;;;;;6.40;5.13;;;;;;;;;;5091788;28;20295;-65
2021/07/13 05:57:14;;;;;;;7.35;5.03;;;;;;;;;;5095728;28;20287;-65
2021/07/13 05:59:42;;;;;;;6.15;4.95;;;;;;;;;;5095330;28;20216;-65
2021/07/13 06:02:10;;;;;;;5.65;5.15;;;;;;;;;;5095678;28;20200;-64
2021/07/13 06:04:39;;;;;;;5.18;4.70;;;;;;;;;;5095633;28;20232;-64
2021/07/13 06:07:08;;;;;;;6.65;4.88;;;;;;;;;;5095537;28;20199;-64
2021/07/13 06:09:36;;;;;;;7.40;4.75;;;;;;;;;;5095582;28;20206;-64
2021/07/13 06:12:05;;;;;;;5.22;4.72;;;;;;;;;;5095407;28;20211;-64
2021/07/13 06:14:36;;;;;;;5.32;4.68;;;;;;;;;;5095465;28;20207;-65
2021/07/13 06:17:05;;;;;;;5.65;4.55;;;;;;;;;;5095508;28;20184;-65
2021/07/13 06:19:33;;;;;;;4.70;4.30;;;;;;;;;;5095304;28;20211;-64
2021/07/13 06:22:03;;;;;;;5.40;4.40;;;;;;;;;;5095250;28;20202;-64
2021/07/13 06:24:31;;;;;;;6.85;4.50;;;;;;;;;;5095295;28;20299;-64
2021/07/13 06:26:59;;;;;;;4.90;4.13;;;;;;;;;;5095069;28;20287;-65
2021/07/13 06:29:27;;;;;;;4.45;4.10;;;;;;;;;;5094870;28;20675;-66
2021/07/13 06:31:55;;;;;;;4.50;4.13;;;;;;;;;;5095025;28;20198;-65
2021/07/13 06:34:23;;;;;;;7.38;4.13;;;;;;;;;;5095044;28;20298;-64
2021/07/13 06:36:55;;;;;;;4.57;3.90;;;;;;;;;;5094769;28;20188;-63
2021/07/13 06:39:24;;;;;;;5.03;3.65;;;;;;;;;;5094758;28;20200;-64
2021/07/13 06:41:53;;;;;;;4.60;3.65;;;;;;;;;;5094396;28;20212;-64
2021/07/13 06:44:22;;;;;;;4.78;3.75;;;;;;;;;;5094892;28;20196;-63
2021/07/13 06:46:50;;;;;;;5.03;3.65;;;;;;;;;;5094703;28;20647;-64
2021/07/13 06:49:18;;;;;;;4.10;3.70;;;;;;;;;;5094934;28;20208;-64
2021/07/13 06:51:46;;;;;;;4.10;3.63;;;;;;;;;;5094282;28;20227;-65
2021/07/13 06:54:15;;;;;;;3.95;3.60;;;;;;;;;;5096038;28;20208;-66
2021/07/13 06:56:45;;;;;;;4.63;4.07;;;;;;;;;;5096590;28;20693;-64
2021/07/13 06:59:13;;;;;;;6.40;4.40;;;;;;;;;;5096797;28;20200;-65
2021/07/13 07:01:41;;;;;;;4.82;3.85;;;;;;;;;;5094856;28;20219;-66
2021/07/13 07:04:10;;;;;;;3.95;3.55;;;;;;;;;;5094327;28;20286;-65
2021/07/13 07:06:38;;;;;;;4.45;3.80;;;;;;;;;;5093714;28;20206;-64
2021/07/13 07:09:06;;;;;;;4.00;3.58;;;;;;;;;;5093991;28;20533;-65
2021/07/13 07:11:34;;;;;;;4.20;3.85;;;;;;;;;;5093936;28;20656;-64
2021/07/13 07:14:04;;;;;;;3.58;3.35;;;;;;;;;;5094439;28;20210;-63
2021/07/13 07:16:32;;;;;;;4.78;3.95;;;;;;;;;;5094034;28;20647;-64
2021/07/13 07:19:00;;;;;;;4.55;3.85;;;;;;;;;;5094268;28;20211;-63
2021/07/13 07:21:28;;;;;;;4.10;3.70;;;;;;;;;;5094009;28;20282;-64
2021/07/13 07:23:57;;;;;;;4.20;3.80;;;;;;;;;;5094119;28;20202;-63
2021/07/13 07:26:25;;;;;;;4.65;3.83;;;;;;;;;;5093866;28;20200;-64
2021/07/13 07:28:53;;;;;;;4.15;3.85;;;;;;;;;;5094056;28;20202;-64
2021/07/13 07:31:23;;;;;;;4.57;4.05;;;;;;;;;;5094317;28;20512;-64
2021/07/13 07:33:51;;;;;;;4.38;3.97;;;;;;;;;;5093579;28;20188;-64
2021/07/13 07:36:25;;;;;;;4.85;4.35;;;;;;;;;;5093715;28;20283;-64
2021/07/13 07:38:53;;;;;;;4.70;4.40;;;;;;;;;;5093836;28;20235;-64
2021/07/13 07:41:21;;;;;;;5.13;4.63;;;;;;;;;;5093603;28;20223;-64
2021/07/13 07:43:49;;;;;;;4.47;4.10;;;;;;;;;;5093472;28;20310;-63
2021/07/13 07:46:18;;;;;;;4.97;4.50;;;;;;;;;;5093756;28;20302;-64
2021/07/13 07:48:47;;;;;;;4.68;4.30;;;;;;;;;;5093760;28;20196;-65
2021/07/13 07:51:15;;;;;;;4.55;4.15;;;;;;;;;;5093062;28;20315;-64
2021/07/13 07:53:45;;;;;;;4.63;3.90;;;;;;;;;;5093594;28;20663;-67
2021/07/13 07:56:13;;;;;;;4.07;3.78;;;;;;;;;;5093108;28;20313;-65
2021/07/13 07:58:42;;;;;;;4.47;4.10;;;;;;;;;;5093298;28;20196;-65
2021/07/13 08:01:10;;;;;;;4.10;3.70;;;;;;;;;;5093073;28;20223;-64
2021/07/13 08:03:39;;;;;;;4.35;4.03;;;;;;;;;;5093001;28;20586;-64
2021/07/13 08:06:08;;;;;;;3.90;3.47;;;;;;;;;;5093257;28;20231;-64
2021/07/13 08:08:36;;;;;;;4.40;4.10;;;;;;;;;;5093004;28;20275;-65
2021/07/13 08:11:05;;;;;;;3.78;3.53;;;;;;;;;;5093851;28;20212;-64
2021/07/13 08:13:33;;;;;;;5.78;3.60;;;;;;;;;;5093870;28;20210;-64
2021/07/13 08:16:01;;;;;;;3.17;2.88;;;;;;;;;;5094288;28;20208;-65
2021/07/13 08:18:29;;;;;;;3.22;2.92;;;;;;;;;;5092713;28;20882;-66
2021/07/13 08:20:59;;;;;;;2.80;2.60;;;;;;;;;;5092896;28;20223;-63
2021/07/13 08:23:29;;;;;;;3.00;2.70;;;;;;;;;;5093011;28;20245;-64
2021/07/13 08:25:57;;;;;;;2.90;2.70;;;;;;;;;;5092983;28;20230;-65
2021/07/13 08:28:25;;;;;;;3.25;2.85;;;;;;;;;;5092574;28;20296;-64
2021/07/13 08:30:53;;;;;;;2.60;2.38;;;;;;;;;;5092831;28;20196;-66
2021/07/13 08:33:21;;;;;;;2.63;2.40;;;;;;;;;;5092704;28;20204;-60
2021/07/13 08:35:49;;;;;;;2.30;2.20;;;;;;;;;;5092596;28;20208;-63
2021/07/13 08:38:18;;;;;;;2.50;2.30;;;;;;;;;;5092408;28;20204;-61
2021/07/13 08:40:48;;;;;;;2.50;2.30;;;;;;;;;;5092697;28;20780;-61
2021/07/13 08:43:16;;;;;;;2.63;2.40;;;;;;;;;;5092321;28;20238;-60
2021/07/13 08:45:45;;;;;;;2.70;2.50;;;;;;;;;;5092642;28;20204;-61
2021/07/13 08:48:14;;;;;;;3.50;2.75;;;;;;;;;;5092344;28;20200;-61
2021/07/13 08:50:42;;;;;;;3.05;2.55;;;;;;;;;;5092077;28;20335;-61
2021/07/13 08:53:11;;;;;;;2.55;2.35;;;;;;;;;;5092471;28;20200;-61
2021/07/13 08:55:39;;;;;;;4.85;2.85;;;;;;;;;;5092474;28;20195;-61
2021/07/13 08:58:13;;;;;;;2.70;2.50;;;;;;;;;;5092338;28;20222;-61
2021/07/13 09:00:41;;;;;;;2.63;2.50;;;;;;;;;;5092373;28;20190;-61
2021/07/13 09:03:11;;;;;;;2.90;2.70;;;;;;;;;;5092371;28;20224;-61
2021/07/13 09:05:41;;;;;;;3.13;2.90;;;;;;;;;;5091869;28;20208;-61
2021/07/13 09:08:13;;;;;;;4.90;2.58;;;;;;;;;;5092095;28;20208;-61
2021/07/13 09:10:59;;;;;;;3.17;2.90;;;;;;;;;;5092046;28;20551;-60
2021/07/13 09:13:30;;;;;;;2.80;2.60;;;;;;;;;;5091811;28;20575;-61
2021/07/13 09:16:00;;;;;;;3.13;2.92;;;;;;;;;;5092280;28;20192;-60
2021/07/13 09:18:30;;;;;;;2.88;2.67;;;;;;;;;;5092215;28;20249;-61
2021/07/13 09:21:07;;;;;;;2.90;2.70;;;;;;;;;;5091680;28;20279;-61
2021/07/13 09:23:35;;;;;;;3.17;2.90;;;;;;;;;;5092214;28;20294;-61
2021/07/13 09:26:04;;;;;;;3.30;3.00;;;;;;;;;;5092138;28;20610;-61
2021/07/13 09:28:33;;;;;;;5.43;3.05;;;;;;;;;;5092099;28;20196;-62
2021/07/13 09:31:01;;;;;;;3.10;2.90;;;;;;;;;;5094163;28;20204;-61
2021/07/13 09:33:32;;;;;;;3.00;2.80;;;;;;;;;;5096444;28;20204;-61
2021/07/13 09:36:02;;;;;;;3.03;2.83;;;;;;;;;;5096149;28;20190;-61
2021/07/13 09:38:31;;;;;;;4.57;2.83;;;;;;;;;;5095775;28;20774;-61
2021/07/13 09:41:03;;;;;;;5.18;2.95;;;;;;;;;;5096157;28;20242;-61
2021/07/13 09:43:46;;;;;;;4.10;2.95;;;;;;;;;;5095790;28;20358;-60
2021/07/13 09:46:31;;;;;;;4.32;3.20;;;;;;;;;;5096106;28;20180;-60
2021/07/13 09:49:13;;;;;;;3.42;3.22;;;;;;;;;;5095636;28;20293;-59
2021/07/13 09:51:42;;;;;;;4.18;3.53;;;;;;;;;;5087738;28;20227;-60
2021/07/13 09:54:29;;;;;;;4.15;3.85;;;;;;;;;;5075601;28;20682;-60
2021/07/13 09:56:58;;;;;;;4.60;3.90;;;;;;;;;;5075530;28;20407;-61
2021/07/13 09:59:27;;;;;;;4.18;3.88;;;;;;;;;;5075248;28;20295;-61
2021/07/13 10:01:56;;;;;;;4.80;4.30;;;;;;;;;;5075520;28;20315;-60
2021/07/13 10:04:24;;;;;;;3.78;3.47;;;;;;;;;;5075159;28;20205;-61
2021/07/13 10:06:53;;;;;;;4.57;4.13;;;;;;;;;;5075333;28;20283;-61
2021/07/13 10:09:24;;;;;;;4.57;4.28;;;;;;;;;;5075329;28;20559;-61
2021/07/13 10:11:52;;;;;;;5.13;4.55;;;;;;;;;;5075129;28;20192;-61
2021/07/13 10:14:21;;;;;;;4.93;4.40;;;;;;;;;;5075309;28;20235;-62
2021/07/13 10:16:51;;;;;;;4.72;4.43;;;;;;;;;;5075399;28;20575;-61
2021/07/13 10:19:20;;;;;;;5.32;4.88;;;;;;;;;;5074948;28;20185;-61
2021/07/13 10:21:49;;;;;;;9.65;4.82;;;;;;;;;;5074861;28;20205;-61
2021/07/13 10:24:22;;;;;;;5.38;4.97;;;;;;;;;;5075170;28;20223;-62
2021/07/13 10:26:51;;;;;;;5.03;4.63;;;;;;;;;;5075043;28;20185;-61
2021/07/13 10:29:39;;;;;;;5.55;4.95;;;;;;;;;;5074847;28;20181;-61
2021/07/13 10:32:09;;;;;;;5.20;4.70;;;;;;;;;;5075142;28;20204;-62
2021/07/13 10:34:50;;;;;;;5.97;5.32;;;;;;;;;;5074989;28;20196;-61
2021/07/13 10:37:26;;;;;;;5.70;5.30;;;;;;;;;;5074543;28;20201;-61
2021/07/13 10:39:55;;;;;;;5.20;4.80;;;;;;;;;;5074777;28;20208;-60
2021/07/13 10:42:42;;;;;;;6.22;5.22;;;;;;;;;;5073378;28;20227;-61
2021/07/13 10:45:14;;;;;;;5.38;4.97;;;;;;;;;;5074342;28;20205;-62
2021/07/13 10:47:58;;;;;;;5.35;4.85;;;;;;;;;;5079307;28;20208;-60
2021/07/13 10:50:33;;;;;;;5.70;5.20;;;;;;;;;;5078197;28;20367;-60
2021/07/13 10:53:02;;;;;;;5.15;4.75;;;;;;;;;;5092728;28;20207;-61
2021/07/13 10:55:51;;;;;;;5.40;4.90;;;;;;;;;;5093069;28;20292;-61
2021/07/13 10:58:23;;;;;;;5.95;5.10;;;;;;;;;;5092025;28;20196;-60
2021/07/13 11:01:05;;;;;;;5.82;4.57;;;;;;;;;;5082293;28;20216;-61
2021/07/13 11:03:52;;;;;;;5.47;4.97;;;;;;;;;;5074310;28;20204;-61
2021/07/13 11:06:22;;;;;;;6.03;5.43;;;;;;;;;;5074340;28;20322;-61
2021/07/13 11:08:50;;;;;;;6.43;5.20;;;;;;;;;;5074058;28;20200;-61
2021/07/13 11:11:37;;;;;;;5.55;5.15;;;;;;;;;;5074343;28;20196;-61
2021/07/13 11:14:06;;;;;;;6.50;5.90;;;;;;;;;;5089982;28;20200;-61
2021/07/13 11:16:35;;;;;;;5.50;5.10;;;;;;;;;;5094415;28;20382;-62
2021/07/13 11:19:04;;;;;;;5.80;5.28;;;;;;;;;;5093917;28;20206;-61
2021/07/13 11:21:35;;;;;;;6.28;5.63;;;;;;;;;;5094113;28;20200;-61
2021/07/13 11:24:11;;;;;;;6.32;5.68;;;;;;;;;;5093920;28;20215;-61
2021/07/13 11:26:41;;;;;;;7.70;5.60;;;;;;;;;;5093884;28;20535;-61
2021/07/13 11:29:15;;;;;;;6.13;5.63;;;;;;;;;;5094291;28;20206;-62
2021/07/13 11:31:43;;;;;;;6.25;5.75;;;;;;;;;;5093882;28;20194;-62
2021/07/13 11:34:12;;;;;;;6.32;5.93;;;;;;;;;;5093828;28;20586;-61
2021/07/13 11:36:43;;;;;;;7.00;5.60;;;;;;;;;;5093919;28;20207;-61
2021/07/13 11:39:12;;;;;;;6.60;5.90;;;;;;;;;;5093891;28;20180;-62
2021/07/13 11:41:41;;;;;;;5.72;5.22;;;;;;;;;;5093836;28;20195;-61
2021/07/13 11:44:10;;;;;;;5.50;5.00;;;;;;;;;;5093662;28;20277;-62
2021/07/13 11:46:40;;;;;;;8.40;5.30;;;;;;;;;;5093973;28;20268;-62
2021/07/13 11:49:09;;;;;;;6.13;5.53;;;;;;;;;;5097613;28;20222;-62
2021/07/13 11:51:39;;;;;;;5.43;4.90;;;;;;;;;;5096258;28;20257;-61
2021/07/13 11:54:09;;;;;;;5.28;4.88;;;;;;;;;;5095047;28;20202;-62
2021/07/13 11:56:38;;;;;;;5.07;4.57;;;;;;;;;;5093572;28;20184;-61
2021/07/13 11:59:06;;;;;;;5.57;5.07;;;;;;;;;;5093514;28;20293;-62
2021/07/13 12:01:35;;;;;;;5.22;4.82;;;;;;;;;;5093522;28;20196;-61
2021/07/13 12:04:04;;;;;;;5.22;4.72;;;;;;;;;;5087717;28;20648;-61
2021/07/13 12:06:34;;;;;;;5.28;4.88;;;;;;;;;;5073022;28;20224;-60
2021/07/13 12:09:08;;;;;;;4.65;4.25;;;;;;;;;;5073138;28;20236;-62
2021/07/13 12:11:40;;;;;;;4.93;4.30;;;;;;;;;;5072720;28;20242;-61
2021/07/13 12:14:10;;;;;;;4.93;4.47;;;;;;;;;;5072984;28;20177;-62
2021/07/13 12:16:39;;;;;;;5.30;4.80;;;;;;;;;;5072803;28;20185;-61
2021/07/13 12:19:10;;;;;;;5.70;4.50;;;;;;;;;;5072848;28;20570;-63
2021/07/13 12:21:41;;;;;;;4.47;4.18;;;;;;;;;;5072875;28;20275;-62
2021/07/13 12:24:12;;;;;;;4.20;3.90;;;;;;;;;;5072565;28;20580;-61
2021/07/13 12:26:48;;;;;;;4.20;3.90;;;;;;;;;;5072400;28;20271;-61
2021/07/13 12:29:17;;;;;;;4.25;3.78;;;;;;;;;;5072816;28;20195;-61
2021/07/13 12:31:57;;;;;;;4.80;4.00;;;;;;;;;;5072798;28;20204;-61
2021/07/13 12:34:28;;;;;;;4.80;4.40;;;;;;;;;;5072483;28;20192;-63
2021/07/13 12:37:20;;;;;;;4.60;4.30;;;;;;;;;;5072636;28;20566;-61
2021/07/13 12:39:49;;;;;;;4.47;4.10;;;;;;;;;;5062206;28;20197;-61
2021/07/13 12:42:23;;;;;;;4.50;4.03;;;;;;;;;;5072484;28;20227;-62
2021/07/13 12:44:57;;;;;;;4.00;3.70;;;;;;;;;;5072635;28;20205;-62
2021/07/13 12:47:29;;;;;;;4.78;3.92;;;;;;;;;;5072199;28;20207;-60
2021/07/13 12:50:17;;;;;;;4.60;4.20;;;;;;;;;;5073716;28;20668;-61
2021/07/13 12:52:46;;;;;;;4.45;4.13;;;;;;;;;;5092505;28;20192;-61
2021/07/13 12:55:15;;;;;;;4.18;3.78;;;;;;;;;;5092672;28;20214;-61
2021/07/13 12:57:46;;;;;;;3.75;3.50;;;;;;;;;;5092401;28;20312;-62
2021/07/13 13:00:16;;;;;;;3.70;3.40;;;;;;;;;;5092177;28;20185;-62
2021/07/13 13:02:45;;;;;;;4.10;3.65;;;;;;;;;;5092303;28;20199;-62
2021/07/13 13:05:26;;;;;;;3.92;3.47;;;;;;;;;;5091508;28;20220;-61
2021/07/13 13:08:05;;;;;;;6.15;3.75;;;;;;;;;;5092250;28;20200;-62
2021/07/13 13:10:34;;;;;;;3.63;3.30;;;;;;;;;;5092359;28;20206;-62
2021/07/13 13:13:04;;;;;;;3.72;3.28;;;;;;;;;;5091945;28;20686;-63
2021/07/13 13:15:32;;;;;;;3.53;3.33;;;;;;;;;;5092266;28;20196;-61
2021/07/13 13:18:00;;;;;;;4.20;3.50;;;;;;;;;;5092294;28;20202;-62
2021/07/13 13:20:29;;;;;;;3.78;3.42;;;;;;;;;;5091985;28;20200;-60
2021/07/13 13:22:58;;;;;;;5.20;3.40;;;;;;;;;;5091900;28;20618;-60
2021/07/13 13:25:26;;;;;;;4.03;3.08;;;;;;;;;;5092061;28;20216;-62
2021/07/13 13:27:55;;;;;;;3.40;3.10;;;;;;;;;;5092115;28;20654;-61
2021/07/13 13:30:24;;;;;;;3.22;2.95;;;;;;;;;;5092258;28;20206;-62
2021/07/13 13:32:52;;;;;;;3.28;2.70;;;;;;;;;;5092213;28;20200;-61
2021/07/13 13:35:27;;;;;;;4.40;2.72;;;;;;;;;;5091872;28;20196;-62
2021/07/13 13:38:10;;;;;;;3.22;2.70;;;;;;;;;;5092105;28;20179;-62
2021/07/13 13:40:39;;;;;;;3.17;2.88;;;;;;;;;;5091832;28;20279;-60
2021/07/13 13:43:08;;;;;;;2.88;2.67;;;;;;;;;;5091841;28;20199;-60
2021/07/13 13:45:38;;;;;;;2.70;2.50;;;;;;;;;;5091723;28;20561;-60
2021/07/13 13:48:06;;;;;;;2.67;2.47;;;;;;;;;;5091781;28;20206;-61
2021/07/13 13:50:34;;;;;;;3.72;2.60;;;;;;;;;;5091448;28;20235;-62
2021/07/13 13:53:23;;;;;;;3.10;2.90;;;;;;;;;;5091651;28;20196;-62
2021/07/13 13:56:03;;;;;;;3.15;2.58;;;;;;;;;;5091882;28;20184;-60
2021/07/13 13:58:32;;;;;;;3.30;2.67;;;;;;;;;;5091641;28;20196;-62
2021/07/13 14:01:02;;;;;;;3.45;2.85;;;;;;;;;;5091833;28;20200;-62
2021/07/13 14:03:30;;;;;;;2.85;2.65;;;;;;;;;;5090504;28;20200;-62
2021/07/13 14:05:59;;;;;;;3.22;2.65;;;;;;;;;;5071594;28;20213;-61
2021/07/13 14:08:30;;;;;;;3.00;2.70;;;;;;;;;;5071526;28;20242;-61
2021/07/13 14:10:59;;;;;;;3.58;2.72;;;;;;;;;;5071616;28;20219;-61
2021/07/13 14:13:27;;;;;;;3.03;2.70;;;;;;;;;;5071498;28;20207;-62
2021/07/13 14:15:55;;;;;;;2.83;2.63;;;;;;;;;;5071527;28;20548;-61
2021/07/13 14:18:25;;;;;;;2.90;2.70;;;;;;;;;;5075145;28;20204;-61
2021/07/13 14:20:55;;;;;;;5.72;3.20;;;;;;;;;;5075068;28;20197;-62
2021/07/13 14:23:23;;;;;;;4.53;3.22;;;;;;;;;;5075007;28;20205;-61
2021/07/13 14:25:51;;;;;;;3.20;2.95;;;;;;;;;;5074885;28;20708;-61
2021/07/13 14:28:20;;;;;;;3.55;3.13;;;;;;;;;;5075027;28;20196;-61
2021/07/13 14:30:48;;;;;;;3.13;2.90;;;;;;;;;;5074749;28;20687;-61
2021/07/13 14:33:16;;;;;;;3.60;2.80;;;;;;;;;;5075201;28;20207;-61
2021/07/13 14:35:45;;;;;;;2.85;2.42;;;;;;;;;;5074685;28;20537;-61
2021/07/13 14:38:14;;;;;;;3.25;2.80;;;;;;;;;;5074978;28;20296;-62
2021/07/13 14:40:42;;;;;;;3.20;3.00;;;;;;;;;;5074846;28;20211;-61
2021/07/13 14:43:12;;;;;;;7.75;3.45;;;;;;;;;;5074646;28;20201;-62
2021/07/13 14:45:47;;;;;;;3.13;2.88;;;;;;;;;;5074558;28;20821;-61
2021/07/13 14:48:15;;;;;;;3.17;2.90;;;;;;;;;;5074838;28;20426;-62
2021/07/13 14:50:46;;;;;;;4.32;3.00;;;;;;;;;;5082368;28;20270;-63
2021/07/13 14:53:15;;;;;;;3.22;2.70;;;;;;;;;;5094804;28;20200;-62
2021/07/13 14:55:45;;;;;;;3.83;2.80;;;;;;;;;;5094660;28;20185;-61